Terminal Aerodrome Forecast
Issued by NWS

Home | Current Version | Previous Version | Text Only | Print | Product List | Glossary On
Versions: 1 2 3 4 5 6 7 8 9 10 11 12
155
FTUS44 KTSA 282321
TAFRVS
TAF
KRVS 282321Z 2900/2924 17013G21KT P6SM SCT060
     FM290200 16008KT P6SM SCT250
     FM291400 18012G20KT P6SM FEW040 BKN250
     FM291800 18014G25KT P6SM SCT050 SCT250=

USA.gov is the U.S. government's official web portal to all federal, state and local government web resources and services.